Time;durP1;ratioP1;P1;durP2;ratioP2;P2;SDS_P1;SDS_P2;PMS_P1;PMS_P2;Temp;Humidity;BMP_temperature;BMP_pressure;BME280_temperature;BME280_humidity;BME280_pressure;Samples;Min_cycle;Max_cycle;Signal;HPM_P1;HPM_P2
2023/09/06 00:00:45;;;;;;;2.73;2.03;;;21.60;99.90;;;;;;5049851;28;20863;-70
2023/09/06 00:03:12;;;;;;;4.70;1.80;;;21.50;99.90;;;;;;5062630;28;20470;-70
2023/09/06 00:05:41;;;;;;;1.90;1.80;;;21.50;99.90;;;;;;5046316;28;20420;-71
2023/09/06 00:08:12;;;;;;;3.30;1.90;;;21.40;99.90;;;;;;5048528;28;20593;-71
2023/09/06 00:10:39;;;;;;;1.93;1.80;;;21.50;99.90;;;;;;5054430;28;20964;-71
2023/09/06 00:13:09;;;;;;;2.57;2.30;;;21.30;99.90;;;;;;5068553;28;20427;-71
2023/09/06 00:15:35;;;;;;;2.30;2.10;;;21.10;99.90;;;;;;5068591;28;20415;-71
2023/09/06 00:18:03;;;;;;;3.03;2.33;;;20.90;99.90;;;;;;5068009;28;20418;-71
2023/09/06 00:20:29;;;;;;;2.43;1.93;;;20.70;99.90;;;;;;5055654;28;20515;-70
2023/09/06 00:23:01;;;;;;;2.23;2.03;;;20.60;99.90;;;;;;5047403;28;20900;-70
2023/09/06 00:25:30;;;;;;;2.60;2.27;;;20.40;99.90;;;;;;5058899;28;20761;-70
2023/09/06 00:27:57;;;;;;;2.07;1.90;;;20.20;99.90;;;;;;5068218;28;20418;-71
2023/09/06 00:30:23;;;;;;;2.60;2.40;;;20.10;99.90;;;;;;5047435;28;20448;-70
2023/09/06 00:32:55;;;;;;;3.60;2.57;;;20.00;99.90;;;;;;5048794;28;20411;-70
2023/09/06 00:35:25;;;;;;;2.20;2.00;;;20.00;99.90;;;;;;5048199;28;20181;-70
2023/09/06 00:37:52;;;;;;;2.43;1.83;;;19.90;99.90;;;;;;5048093;28;20449;-70
2023/09/06 00:40:19;;;;;;;2.37;2.10;;;19.80;99.90;;;;;;5046937;28;20444;-70
2023/09/06 00:43:03;;;;;;;2.07;1.90;;;19.70;99.90;;;;;;5048396;28;20829;-70
2023/09/06 00:45:31;;;;;;;2.57;2.00;;;19.60;99.90;;;;;;5047996;28;20417;-70
2023/09/06 00:47:58;;;;;;;2.07;1.90;;;19.50;99.90;;;;;;5047585;28;20416;-71
2023/09/06 00:50:28;;;;;;;2.37;2.17;;;19.50;99.90;;;;;;5048202;28;20444;-70
2023/09/06 00:52:55;;;;;;;2.20;2.00;;;19.40;99.90;;;;;;5046614;28;20435;-70
2023/09/06 00:55:21;;;;;;;2.67;2.47;;;19.40;99.90;;;;;;5047737;28;20416;-70
2023/09/06 00:57:48;;;;;;;2.30;2.00;;;19.30;99.90;;;;;;5047514;28;20784;-70
2023/09/06 01:00:22;;;;;;;2.23;2.03;;;19.20;99.90;;;;;;5046623;28;20209;-70
2023/09/06 01:02:49;;;;;;;2.27;1.80;;;19.20;99.90;;;;;;5047997;28;20538;-70
2023/09/06 01:05:15;;;;;;;2.53;1.67;;;19.20;99.90;;;;;;5045631;28;20437;-70
2023/09/06 01:07:45;;;;;;;2.57;2.10;;;19.30;99.90;;;;;;5049241;28;20423;-70
2023/09/06 01:10:11;;;;;;;3.07;2.00;;;19.20;99.90;;;;;;5045004;28;20852;-70
2023/09/06 01:12:36;;;;;;;2.20;1.97;;;19.20;99.90;;;;;;5048515;28;20439;-70
2023/09/06 01:15:04;;;;;;;4.10;2.30;;;19.10;99.90;;;;;;5045723;28;20714;-70
2023/09/06 01:17:31;;;;;;;2.00;1.90;;;19.10;99.90;;;;;;5047361;28;20257;-70
2023/09/06 01:20:16;;;;;;;2.00;1.90;;;19.10;99.90;;;;;;5046348;28;20436;-70
2023/09/06 01:22:53;;;;;;;3.40;1.87;;;19.00;99.90;;;;;;5047197;28;20969;-70
2023/09/06 01:25:20;;;;;;;2.63;2.10;;;19.10;99.90;;;;;;5055461;28;21195;-70
2023/09/06 01:27:46;;;;;;;2.23;2.03;;;19.10;99.90;;;;;;5056076;28;20563;-70
2023/09/06 01:30:12;;;;;;;2.23;1.80;;;19.10;99.90;;;;;;5057028;28;20805;-70
2023/09/06 01:32:39;;;;;;;3.30;2.60;;;19.10;99.90;;;;;;5053419;28;20432;-70
2023/09/06 01:35:08;;;;;;;4.47;2.60;;;19.10;99.90;;;;;;5052897;28;20177;-70
2023/09/06 01:37:35;;;;;;;2.97;2.23;;;19.10;99.90;;;;;;5052288;28;20824;-70
2023/09/06 01:40:00;;;;;;;1.93;1.73;;;19.00;99.90;;;;;;5057170;28;20451;-70
2023/09/06 01:42:26;;;;;;;3.33;2.30;;;19.00;99.90;;;;;;5055473;28;20508;-70
2023/09/06 01:44:53;;;;;;;3.03;2.70;;;18.90;99.90;;;;;;5059706;28;20181;-70
2023/09/06 01:47:18;;;;;;;2.60;2.40;;;18.90;99.90;;;;;;5046250;28;20932;-70
2023/09/06 01:49:44;;;;;;;2.57;2.30;;;18.70;99.90;;;;;;5059337;28;20518;-70
2023/09/06 01:52:11;;;;;;;2.50;2.30;;;18.70;99.90;;;;;;5073776;28;20181;-69
2023/09/06 01:54:36;;;;;;;3.73;2.30;;;18.60;99.90;;;;;;5065473;28;20428;-70
2023/09/06 01:57:02;;;;;;;2.20;2.00;;;18.60;99.90;;;;;;5069638;28;20448;-71
2023/09/06 01:59:28;;;;;;;5.60;2.60;;;18.60;99.90;;;;;;5048352;28;20209;-70
2023/09/06 02:01:54;;;;;;;2.57;2.37;;;18.50;99.90;;;;;;5047582;28;20209;-70
2023/09/06 02:04:20;;;;;;;2.60;2.40;;;18.60;99.90;;;;;;5045504;28;20223;-70
2023/09/06 02:06:46;;;;;;;4.00;2.50;;;18.60;99.90;;;;;;5044737;28;20460;-71
2023/09/06 02:09:12;;;;;;;4.10;2.30;;;18.60;99.90;;;;;;5046882;28;20201;-70
2023/09/06 02:11:38;;;;;;;3.23;2.20;;;18.50;99.90;;;;;;5046947;28;20719;-70
2023/09/06 02:14:04;;;;;;;2.57;2.37;;;18.50;99.90;;;;;;5046606;28;20421;-70
2023/09/06 02:16:30;;;;;;;3.13;2.27;;;18.50;99.90;;;;;;5045865;28;20190;-70
2023/09/06 02:18:55;;;;;;;2.80;2.60;;;18.40;99.90;;;;;;5046545;28;20210;-70
2023/09/06 02:21:21;;;;;;;3.20;2.27;;;18.40;99.90;;;;;;5046610;28;20428;-70
2023/09/06 02:23:47;;;;;;;2.87;2.07;;;18.30;99.90;;;;;;5046602;28;20228;-70
2023/09/06 02:26:12;;;;;;;2.70;2.33;;;18.30;99.90;;;;;;5045879;28;20197;-70
2023/09/06 02:28:38;;;;;;;2.30;2.10;;;18.30;99.90;;;;;;5061733;28;20557;-70
2023/09/06 02:31:04;;;;;;;2.40;2.20;;;18.20;99.90;;;;;;5045810;28;20285;-70
2023/09/06 02:33:30;;;;;;;2.53;2.30;;;18.20;99.90;;;;;;5046644;28;20276;-70
2023/09/06 02:35:55;;;;;;;2.23;1.90;;;18.10;99.90;;;;;;5045689;28;20186;-70
2023/09/06 02:38:21;;;;;;;2.73;2.53;;;18.00;99.90;;;;;;5046077;28;20528;-70
2023/09/06 02:40:47;;;;;;;2.60;2.40;;;18.00;99.90;;;;;;5046779;28;20237;-70
2023/09/06 02:43:13;;;;;;;2.33;2.13;;;18.00;99.90;;;;;;5044824;28;20221;-70
2023/09/06 02:45:39;;;;;;;3.03;2.47;;;18.00;99.90;;;;;;5049992;28;20268;-70
2023/09/06 02:48:15;;;;;;;2.57;2.37;;;18.00;99.90;;;;;;5051082;28;20549;-70
2023/09/06 02:50:41;;;;;;;3.03;2.57;;;18.00;99.90;;;;;;5070826;28;20894;-70
2023/09/06 02:53:19;;;;;;;2.70;2.30;;;18.00;99.90;;;;;;5070194;28;20469;-70
2023/09/06 02:55:54;;;;;;;3.90;2.83;;;18.00;99.90;;;;;;5044258;28;20697;-70
2023/09/06 02:58:23;;;;;;;2.70;2.50;;;18.00;99.90;;;;;;5050171;28;20685;-70
2023/09/06 03:00:55;;;;;;;3.00;2.80;;;18.00;99.90;;;;;;5062735;28;20443;-70
2023/09/06 03:03:21;;;;;;;2.80;2.43;;;17.90;99.90;;;;;;5070059;28;20451;-69
2023/09/06 03:05:47;;;;;;;2.50;2.30;;;17.80;99.90;;;;;;5069144;28;20419;-70
2023/09/06 03:08:13;;;;;;;4.03;2.63;;;17.80;99.90;;;;;;5070067;28;20423;-70
2023/09/06 03:10:45;;;;;;;2.60;2.40;;;17.70;99.90;;;;;;5070277;28;20350;-70
2023/09/06 03:13:11;;;;;;;2.47;2.27;;;17.70;99.90;;;;;;5068838;28;20419;-69
2023/09/06 03:15:37;;;;;;;2.60;2.40;;;17.60;99.90;;;;;;5069577;28;20419;-70
2023/09/06 03:18:05;;;;;;;2.60;2.40;;;17.60;99.90;;;;;;5069088;28;20189;-70
2023/09/06 03:20:43;;;;;;;2.87;2.67;;;17.60;99.90;;;;;;5068631;28;20208;-70
2023/09/06 03:23:19;;;;;;;3.20;2.90;;;17.60;99.90;;;;;;5068324;28;20838;-70
2023/09/06 03:25:50;;;;;;;3.37;2.17;;;17.60;99.90;;;;;;5049975;28;20864;-70
2023/09/06 03:28:20;;;;;;;3.40;2.40;;;17.60;99.90;;;;;;5049409;28;20423;-70
2023/09/06 03:30:47;;;;;;;4.33;2.30;;;17.60;99.90;;;;;;5069436;28;20455;-70
2023/09/06 03:33:13;;;;;;;2.53;2.33;;;17.60;99.90;;;;;;5069610;28;20411;-70
2023/09/06 03:35:38;;;;;;;4.10;2.70;;;17.60;99.90;;;;;;5068599;28;20423;-70
2023/09/06 03:38:10;;;;;;;3.10;2.80;;;17.60;99.90;;;;;;5069341;28;20551;-70
2023/09/06 03:40:36;;;;;;;3.50;2.40;;;17.60;99.90;;;;;;5069249;28;20240;-70
2023/09/06 03:43:15;;;;;;;3.20;2.60;;;17.50;99.90;;;;;;5069223;28;20971;-70
2023/09/06 03:45:53;;;;;;;4.07;2.67;;;17.40;99.90;;;;;;5067255;28;20431;-70
2023/09/06 03:48:20;;;;;;;3.77;2.60;;;17.40;99.90;;;;;;5067761;28;20440;-70
2023/09/06 03:50:48;;;;;;;5.67;2.97;;;17.40;99.90;;;;;;5069462;28;20435;-70
2023/09/06 03:53:15;;;;;;;4.03;2.93;;;17.30;99.90;;;;;;5068950;28;20932;-69
2023/09/06 03:55:43;;;;;;;4.00;2.60;;;17.20;99.90;;;;;;5067002;28;20502;-70
2023/09/06 03:58:10;;;;;;;2.13;2.00;;;17.10;99.90;;;;;;5068889;28;20481;-70
2023/09/06 04:00:39;;;;;;;3.23;2.93;;;17.10;99.90;;;;;;5067837;28;20445;-70
2023/09/06 04:03:07;;;;;;;2.77;2.57;;;17.00;99.90;;;;;;5069116;28;20505;-70
2023/09/06 04:05:34;;;;;;;3.07;2.63;;;17.00;99.90;;;;;;5057043;28;20420;-70
2023/09/06 04:08:03;;;;;;;4.30;2.80;;;17.00;99.90;;;;;;5048688;28;20546;-69
2023/09/06 04:10:38;;;;;;;6.73;2.80;;;17.00;99.90;;;;;;5048281;28;20439;-70
2023/09/06 04:13:08;;;;;;;2.97;2.67;;;17.00;99.90;;;;;;5048951;28;20416;-69
2023/09/06 04:15:35;;;;;;;3.03;2.60;;;16.90;99.90;;;;;;5048792;28;20474;-70
2023/09/06 04:18:03;;;;;;;4.80;3.40;;;16.90;99.90;;;;;;5048284;28;20420;-70
2023/09/06 04:20:31;;;;;;;2.90;2.60;;;16.80;99.90;;;;;;5048665;28;20440;-70
2023/09/06 04:22:58;;;;;;;3.47;2.93;;;16.80;99.90;;;;;;5047620;28;20578;-70
2023/09/06 04:25:26;;;;;;;2.67;2.47;;;16.70;99.90;;;;;;5059456;28;20411;-70
2023/09/06 04:27:55;;;;;;;4.40;3.23;;;16.70;99.90;;;;;;5068051;28;20433;-70
2023/09/06 04:30:28;;;;;;;3.53;2.90;;;16.70;99.90;;;;;;5047468;28;20976;-70
2023/09/06 04:32:59;;;;;;;4.93;3.40;;;16.60;99.90;;;;;;5048710;28;20424;-69
2023/09/06 04:35:34;;;;;;;4.20;3.23;;;16.60;99.90;;;;;;5051770;28;20436;-70
2023/09/06 04:38:02;;;;;;;3.90;3.10;;;16.60;99.90;;;;;;5052511;28;20868;-70
2023/09/06 04:40:29;;;;;;;3.57;2.93;;;16.50;99.90;;;;;;5055696;28;20947;-70
2023/09/06 04:42:55;;;;;;;3.80;3.30;;;16.50;99.90;;;;;;5031692;28;20549;-70
2023/09/06 04:45:21;;;;;;;4.20;3.80;;;16.50;99.90;;;;;;5040463;28;20580;-70
2023/09/06 04:47:47;;;;;;;5.80;4.10;;;16.50;99.90;;;;;;5039412;28;20421;-70
2023/09/06 04:50:13;;;;;;;5.60;3.60;;;16.50;99.90;;;;;;5047611;28;20244;-70
2023/09/06 04:52:47;;;;;;;4.23;3.70;;;16.60;99.90;;;;;;5050684;28;20919;-70
2023/09/06 04:55:14;;;;;;;4.63;4.23;;;16.70;99.90;;;;;;5064957;28;20420;-70
2023/09/06 04:57:45;;;;;;;4.90;4.37;;;16.80;99.90;;;;;;5068059;28;20411;-71
2023/09/06 05:00:18;;;;;;;4.20;3.80;;;16.90;99.90;;;;;;5057101;28;20428;-70
2023/09/06 05:02:46;;;;;;;3.80;3.50;;;17.00;99.90;;;;;;5053073;28;20915;-70
2023/09/06 05:05:13;;;;;;;3.73;3.20;;;17.10;99.90;;;;;;5065215;28;20407;-70
2023/09/06 05:07:40;;;;;;;4.47;4.07;;;17.10;99.90;;;;;;5050325;28;20562;-70
2023/09/06 05:10:08;;;;;;;4.00;3.60;;;17.20;99.90;;;;;;5057837;28;20510;-70
2023/09/06 05:12:33;;;;;;;3.53;3.20;;;17.30;99.90;;;;;;5066808;28;20401;-70
2023/09/06 05:15:00;;;;;;;3.50;3.20;;;17.50;99.90;;;;;;5057703;28;20416;-71
2023/09/06 05:17:26;;;;;;;3.97;3.03;;;17.50;99.90;;;;;;5055996;28;20184;-70
2023/09/06 05:19:55;;;;;;;3.33;3.03;;;17.60;99.90;;;;;;5060743;28;20435;-71
2023/09/06 05:22:24;;;;;;;3.90;3.50;;;17.70;99.90;;;;;;5068384;28;20240;-70
2023/09/06 05:24:50;;;;;;;3.30;3.00;;;17.80;99.90;;;;;;5058119;28;20412;-71
2023/09/06 05:27:17;;;;;;;3.73;3.43;;;17.90;99.90;;;;;;5047640;28;20562;-70
2023/09/06 05:29:43;;;;;;;3.67;3.23;;;18.00;99.90;;;;;;5060832;28;20518;-70
2023/09/06 05:32:09;;;;;;;6.70;3.53;;;18.00;99.90;;;;;;5066530;28;20514;-71
2023/09/06 05:34:35;;;;;;;3.23;2.93;;;18.00;99.90;;;;;;5057540;28;20490;-70
2023/09/06 05:37:00;;;;;;;3.60;3.30;;;18.00;99.90;;;;;;5047813;28;20182;-71
2023/09/06 05:39:26;;;;;;;3.17;2.90;;;18.10;99.90;;;;;;5057853;28;20716;-71
2023/09/06 05:41:53;;;;;;;3.87;3.13;;;18.10;99.90;;;;;;5047140;28;20709;-70
2023/09/06 05:44:19;;;;;;;4.80;3.23;;;18.30;99.90;;;;;;5047919;28;20176;-70
2023/09/06 05:46:45;;;;;;;3.60;3.30;;;18.30;99.90;;;;;;5049849;28;20423;-70
2023/09/06 05:49:10;;;;;;;4.67;3.50;;;18.30;99.90;;;;;;5044904;28;20205;-71
2023/09/06 05:51:36;;;;;;;4.93;3.30;;;18.40;99.90;;;;;;5049691;28;20663;-71
2023/09/06 05:54:02;;;;;;;3.10;2.70;;;18.50;99.90;;;;;;5047920;28;20174;-70
2023/09/06 05:56:28;;;;;;;4.50;3.60;;;18.60;99.90;;;;;;5054220;28;20177;-71
2023/09/06 05:58:53;;;;;;;3.70;3.20;;;18.70;99.90;;;;;;5052467;28;20247;-70
2023/09/06 06:01:19;;;;;;;6.47;3.70;;;18.80;99.90;;;;;;5052854;28;20215;-70
2023/09/06 06:03:45;;;;;;;3.00;2.60;;;18.90;99.90;;;;;;5053004;28;20240;-70
2023/09/06 06:06:14;;;;;;;3.70;2.83;;;19.00;99.90;;;;;;5047765;28;20194;-71
2023/09/06 06:08:41;;;;;;;3.90;3.50;;;19.20;99.90;;;;;;5054808;28;20215;-70
2023/09/06 06:11:08;;;;;;;6.70;3.30;;;19.40;99.90;;;;;;5046519;28;20463;-70
2023/09/06 06:13:34;;;;;;;4.40;3.57;;;19.60;99.90;;;;;;5055680;28;20416;-71
2023/09/06 06:16:00;;;;;;;3.80;3.13;;;19.70;99.90;;;;;;5064157;28;20415;-70
2023/09/06 06:18:26;;;;;;;2.97;2.77;;;19.80;99.90;;;;;;5043078;28;20507;-71
2023/09/06 06:20:53;;;;;;;4.10;3.27;;;19.90;99.90;;;;;;5043930;28;20440;-70
2023/09/06 06:23:19;;;;;;;4.27;3.43;;;20.10;99.90;;;;;;5043314;28;20492;-70
2023/09/06 06:25:44;;;;;;;3.57;3.27;;;20.20;99.90;;;;;;5058696;28;20787;-70
2023/09/06 06:28:10;;;;;;;4.10;3.70;;;20.30;99.90;;;;;;5064435;28;20263;-70
2023/09/06 06:30:35;;;;;;;4.20;3.30;;;20.50;99.90;;;;;;5046534;28;20720;-70
2023/09/06 06:33:01;;;;;;;3.83;3.03;;;20.60;99.90;;;;;;5046553;28;20655;-70
2023/09/06 06:35:27;;;;;;;4.77;3.50;;;20.70;99.90;;;;;;5046273;28;20229;-71
2023/09/06 06:37:53;;;;;;;3.60;3.30;;;20.90;99.90;;;;;;5045163;28;20201;-70
2023/09/06 06:40:18;;;;;;;5.93;3.23;;;21.00;99.90;;;;;;5046685;28;20209;-71
2023/09/06 06:42:45;;;;;;;4.33;3.07;;;21.10;99.90;;;;;;5046827;28;20276;-70
2023/09/06 06:45:11;;;;;;;4.60;3.40;;;21.10;99.90;;;;;;5046064;28;20440;-71
2023/09/06 06:47:37;;;;;;;3.50;3.20;;;21.30;99.90;;;;;;5044544;28;20188;-71
2023/09/06 06:50:06;;;;;;;4.80;4.30;;;21.30;99.90;;;;;;5046694;28;20216;-70
2023/09/06 06:52:36;;;;;;;5.37;4.87;;;21.50;99.90;;;;;;5045105;28;20423;-71
2023/09/06 06:55:03;;;;;;;6.37;5.27;;;21.70;99.90;;;;;;5046286;28;21026;-71
2023/09/06 06:57:30;;;;;;;7.47;4.40;;;21.80;99.90;;;;;;5045936;28;20424;-70
2023/09/06 06:59:55;;;;;;;5.03;4.50;;;21.90;99.90;;;;;;5045420;28;20836;-71
2023/09/06 07:02:21;;;;;;;6.03;4.60;;;22.00;99.90;;;;;;5049401;28;20466;-71
2023/09/06 07:04:47;;;;;;;6.03;4.83;;;22.00;99.90;;;;;;5066175;28;20192;-71
2023/09/06 07:07:13;;;;;;;6.57;5.20;;;22.10;99.90;;;;;;5064174;28;20690;-71
2023/09/06 07:09:39;;;;;;;8.73;5.27;;;22.20;99.90;;;;;;5057038;28;20473;-70
2023/09/06 07:12:05;;;;;;;8.13;5.10;;;22.20;99.90;;;;;;5040218;28;20327;-71
2023/09/06 07:14:30;;;;;;;6.30;4.83;;;22.30;99.90;;;;;;5046613;28;20192;-70
2023/09/06 07:16:58;;;;;;;6.73;4.90;;;22.30;99.90;;;;;;5045275;28;20269;-70
2023/09/06 07:19:24;;;;;;;7.67;5.20;;;22.40;99.90;;;;;;5045972;28;20236;-71
2023/09/06 07:21:50;;;;;;;8.33;4.97;;;22.40;99.90;;;;;;5045578;28;20491;-71
2023/09/06 07:24:15;;;;;;;5.70;4.83;;;22.40;99.90;;;;;;5048164;28;20189;-71
2023/09/06 07:26:41;;;;;;;6.60;5.67;;;22.40;99.90;;;;;;5065300;28;20264;-71
2023/09/06 07:29:07;;;;;;;10.57;5.30;;;22.50;99.90;;;;;;5057056;28;20559;-70
2023/09/06 07:31:32;;;;;;;6.07;5.40;;;22.50;99.90;;;;;;5049463;28;20561;-71
2023/09/06 07:33:58;;;;;;;7.53;5.43;;;22.60;99.90;;;;;;5049618;28;20173;-71
2023/09/06 07:36:24;;;;;;;8.93;5.27;;;22.50;99.90;;;;;;5048463;28;20193;-71
2023/09/06 07:38:54;;;;;;;8.63;4.90;;;22.60;99.90;;;;;;5049761;28;20193;-71
2023/09/06 07:41:20;;;;;;;5.10;4.00;;;22.60;99.90;;;;;;5049588;28;20182;-71
2023/09/06 07:43:46;;;;;;;4.60;4.07;;;22.70;99.90;;;;;;5049721;28;20460;-71
2023/09/06 07:46:12;;;;;;;5.43;3.53;;;22.70;99.90;;;;;;5048264;28;20507;-71
2023/09/06 07:48:38;;;;;;;5.83;3.73;;;22.70;99.90;;;;;;5049726;28;20495;-71
2023/09/06 07:51:05;;;;;;;5.20;3.77;;;22.80;99.90;;;;;;5049075;28;20185;-71
2023/09/06 07:53:31;;;;;;;3.63;3.30;;;22.90;99.90;;;;;;5068881;28;20498;-71
2023/09/06 07:55:57;;;;;;;4.03;3.30;;;22.90;99.90;;;;;;5068375;28;20439;-71
2023/09/06 07:58:23;;;;;;;5.27;3.30;;;22.90;99.90;;;;;;5068709;28;20920;-71
2023/09/06 08:00:50;;;;;;;5.40;3.63;;;23.00;99.90;;;;;;5067611;28;20427;-71
2023/09/06 08:03:15;;;;;;;3.80;3.40;;;23.00;99.90;;;;;;5068670;28;20447;-71
2023/09/06 08:05:41;;;;;;;4.53;3.97;;;23.00;99.90;;;;;;5067148;28;20415;-71
2023/09/06 08:08:09;;;;;;;3.90;3.60;;;23.00;99.90;;;;;;5069417;28;20173;-71
2023/09/06 08:10:36;;;;;;;4.80;4.30;;;23.10;99.90;;;;;;5069560;28;20197;-71
2023/09/06 08:13:03;;;;;;;4.50;3.30;;;23.10;99.90;;;;;;5069515;28;20506;-71
2023/09/06 08:15:30;;;;;;;3.93;3.50;;;23.10;99.90;;;;;;5067652;28;20780;-71
2023/09/06 08:17:56;;;;;;;3.70;3.40;;;23.00;99.90;;;;;;5069162;28;20458;-71
2023/09/06 08:20:22;;;;;;;7.17;3.37;;;23.10;99.90;;;;;;5067422;28;20973;-71
2023/09/06 08:22:48;;;;;;;4.23;3.40;;;23.10;99.90;;;;;;5063101;28;20194;-71
2023/09/06 08:25:15;;;;;;;4.67;3.70;;;23.10;99.90;;;;;;5058320;28;20430;-71
2023/09/06 08:27:41;;;;;;;3.63;3.33;;;23.10;99.90;;;;;;5072926;28;20178;-71
2023/09/06 08:30:12;;;;;;;4.50;3.57;;;23.20;99.90;;;;;;5076403;28;20456;-71
2023/09/06 08:32:39;;;;;;;3.60;3.20;;;23.30;99.90;;;;;;5062345;28;20436;-71
2023/09/06 08:35:06;;;;;;;3.80;3.40;;;23.30;99.90;;;;;;5056104;28;20416;-71
2023/09/06 08:37:33;;;;;;;4.23;3.83;;;23.30;99.90;;;;;;5057122;28;20412;-71
2023/09/06 08:39:59;;;;;;;4.30;3.80;;;23.30;99.90;;;;;;5052020;28;20427;-71
2023/09/06 08:42:28;;;;;;;4.63;3.90;;;23.30;99.90;;;;;;5045628;28;20456;-71
2023/09/06 08:44:55;;;;;;;3.93;3.63;;;23.40;99.90;;;;;;5048943;28;20200;-71
2023/09/06 08:47:21;;;;;;;4.43;3.97;;;23.40;99.90;;;;;;5047979;28;20421;-71
2023/09/06 08:49:47;;;;;;;3.90;3.60;;;23.40;99.90;;;;;;5049238;28;20428;-71
2023/09/06 08:52:17;;;;;;;4.30;3.70;;;23.40;99.90;;;;;;5048390;28;20416;-71
2023/09/06 08:54:48;;;;;;;5.70;4.13;;;23.50;99.90;;;;;;5048521;28;20428;-71
2023/09/06 08:57:15;;;;;;;4.53;4.13;;;23.50;99.90;;;;;;5047555;28;21058;-71
2023/09/06 08:59:41;;;;;;;3.80;3.40;;;23.50;99.90;;;;;;5047415;28;20439;-70
2023/09/06 09:02:12;;;;;;;4.00;3.60;;;23.60;99.90;;;;;;5048336;28;20459;-71
2023/09/06 09:04:42;;;;;;;5.90;4.03;;;23.70;99.90;;;;;;5041826;28;20860;-71
2023/09/06 09:07:18;;;;;;;4.73;4.33;;;23.70;99.90;;;;;;5047803;28;20469;-71
2023/09/06 09:09:58;;;;;;;5.20;4.70;;;23.80;99.90;;;;;;5048235;28;20432;-71
2023/09/06 09:12:26;;;;;;;4.80;4.20;;;23.90;99.90;;;;;;5048193;28;20436;-71
2023/09/06 09:14:54;;;;;;;5.23;4.73;;;23.90;99.90;;;;;;5047910;28;20413;-71
2023/09/06 09:17:21;;;;;;;6.20;4.30;;;24.00;99.90;;;;;;5047330;28;20425;-71
2023/09/06 09:19:49;;;;;;;7.70;4.07;;;24.10;99.90;;;;;;5048135;28;20535;-71
2023/09/06 09:22:20;;;;;;;4.40;3.90;;;24.20;99.90;;;;;;5044518;28;20989;-71
2023/09/06 09:24:46;;;;;;;7.17;4.20;;;24.30;99.90;;;;;;5054269;28;20819;-71
2023/09/06 09:27:12;;;;;;;4.93;4.23;;;24.40;99.90;;;;;;5067032;28;20867;-71
2023/09/06 09:29:38;;;;;;;4.63;4.20;;;24.50;99.90;;;;;;5054305;28;20471;-71
2023/09/06 09:32:04;;;;;;;4.90;4.27;;;24.60;99.90;;;;;;5047553;28;20198;-71
2023/09/06 09:34:31;;;;;;;5.10;3.93;;;24.70;99.90;;;;;;5047598;28;20420;-71
2023/09/06 09:36:56;;;;;;;4.67;4.20;;;24.80;99.90;;;;;;5046999;28;20420;-71
2023/09/06 09:39:26;;;;;;;5.63;4.53;;;24.90;99.90;;;;;;5047388;28;20459;-71
2023/09/06 09:41:51;;;;;;;4.90;4.50;;;25.10;99.90;;;;;;5047827;28;20202;-71
2023/09/06 09:44:19;;;;;;;5.13;3.90;;;25.20;99.90;;;;;;5047038;28;20450;-71
2023/09/06 09:46:46;;;;;;;6.87;4.33;;;25.30;99.90;;;;;;5047125;28;20181;-71
2023/09/06 09:49:13;;;;;;;5.20;4.40;;;25.40;99.90;;;;;;5045932;28;21039;-71
2023/09/06 09:51:40;;;;;;;5.13;4.27;;;25.50;99.90;;;;;;5047471;28;20797;-71
2023/09/06 09:54:08;;;;;;;4.70;3.70;;;25.60;99.90;;;;;;5046838;28;20417;-71
2023/09/06 09:56:34;;;;;;;5.07;4.30;;;25.80;99.90;;;;;;5046353;28;20913;-71
2023/09/06 09:59:04;;;;;;;5.87;4.97;;;25.90;99.90;;;;;;5047088;28;20515;-71
2023/09/06 10:01:32;;;;;;;6.40;4.50;;;26.00;99.90;;;;;;5045567;28;20420;-71
2023/09/06 10:03:59;;;;;;;4.70;4.30;;;26.10;99.90;;;;;;5047243;28;20408;-71
2023/09/06 10:06:27;;;;;;;5.07;4.53;;;26.20;99.90;;;;;;5046270;28;20496;-71
2023/09/06 10:08:58;;;;;;;4.90;4.13;;;26.30;99.90;;;;;;5047204;28;20440;-71
2023/09/06 10:11:25;;;;;;;4.83;4.30;;;26.40;99.90;;;;;;5047090;28;20419;-71
2023/09/06 10:13:52;;;;;;;5.00;4.60;;;26.50;99.90;;;;;;5047298;28;20435;-71
2023/09/06 10:16:20;;;;;;;5.10;4.70;;;26.60;99.90;;;;;;5045870;28;20423;-71
2023/09/06 10:18:46;;;;;;;7.23;4.80;;;26.70;99.90;;;;;;5047241;28;20531;-71
2023/09/06 10:21:13;;;;;;;5.43;4.57;;;26.80;99.90;;;;;;5046909;28;20815;-71
2023/09/06 10:23:43;;;;;;;4.53;4.17;;;26.90;99.90;;;;;;5045744;28;20529;-71
2023/09/06 10:26:09;;;;;;;4.53;4.13;;;27.00;99.90;;;;;;5060147;28;20473;-71
2023/09/06 10:28:35;;;;;;;5.13;4.73;;;27.00;99.90;;;;;;5061176;28;20420;-71
2023/09/06 10:31:08;;;;;;;5.17;4.67;;;27.10;99.90;;;;;;5046666;28;20428;-71
2023/09/06 10:33:36;;;;;;;9.10;4.80;;;27.10;99.90;;;;;;5046941;28;20487;-71
2023/09/06 10:36:07;;;;;;;4.70;4.30;;;27.10;99.90;;;;;;5045819;28;20408;-71
2023/09/06 10:38:35;;;;;;;5.77;4.77;;;27.10;99.90;;;;;;5046846;28;21457;-71
2023/09/06 10:41:07;;;;;;;8.63;4.83;;;27.20;99.90;;;;;;5047089;28;20474;-71
2023/09/06 10:44:03;;;;;;;5.00;4.40;;;27.20;99.90;;;;;;5045464;28;20455;-71
2023/09/06 10:46:33;;;;;;;4.30;3.90;;;27.20;99.60;;;;;;5055079;28;20923;-71
2023/09/06 10:49:19;;;;;;;4.50;4.10;;;27.30;99.80;;;;;;5066938;28;20434;-71
2023/09/06 10:52:06;;;;;;;5.80;4.30;;;27.40;99.70;;;;;;5066943;28;20415;-71
2023/09/06 10:54:43;;;;;;;4.10;3.70;;;27.40;98.10;;;;;;5065512;28;20455;-71
2023/09/06 10:57:10;;;;;;;5.40;4.63;;;27.50;97.60;;;;;;5065802;28;20415;-71
2023/09/06 10:59:44;;;;;;;4.97;4.57;;;27.60;97.80;;;;;;5065008;28;20431;-71
2023/09/06 11:02:15;;;;;;;4.17;3.87;;;27.60;99.00;;;;;;5066656;28;20517;-71
2023/09/06 11:04:43;;;;;;;4.87;4.47;;;27.70;98.40;;;;;;5067211;28;20418;-71
2023/09/06 11:07:12;;;;;;;4.00;3.70;;;27.70;99.10;;;;;;5070249;28;20449;-71
2023/09/06 11:09:43;;;;;;;4.13;3.80;;;27.80;98.40;;;;;;5070386;28;20427;-71
2023/09/06 11:12:13;;;;;;;4.50;4.10;;;27.80;97.50;;;;;;5070514;28;20428;-71
2023/09/06 11:14:40;;;;;;;5.63;4.77;;;27.90;97.10;;;;;;5070006;28;21094;-71
2023/09/06 11:17:06;;;;;;;5.10;4.60;;;28.00;96.90;;;;;;5069722;28;20461;-71
2023/09/06 11:19:35;;;;;;;5.27;4.40;;;28.00;96.60;;;;;;5070285;28;20446;-71
2023/09/06 11:22:09;;;;;;;5.07;4.50;;;28.00;97.60;;;;;;5068823;28;20447;-71
2023/09/06 11:24:36;;;;;;;5.27;4.63;;;28.10;96.80;;;;;;5062320;28;20530;-71
2023/09/06 11:27:24;;;;;;;5.10;4.60;;;28.10;95.40;;;;;;5049831;28;20420;-71
2023/09/06 11:29:59;;;;;;;4.90;4.47;;;28.20;94.90;;;;;;5063742;28;20450;-71
2023/09/06 11:32:26;;;;;;;4.77;3.90;;;28.30;95.30;;;;;;5068878;28;20928;-71
2023/09/06 11:34:52;;;;;;;3.90;3.60;;;28.30;94.70;;;;;;5068876;28;20911;-71
2023/09/06 11:37:19;;;;;;;4.37;3.80;;;28.40;93.70;;;;;;5069544;28;20472;-71
2023/09/06 11:39:45;;;;;;;5.07;3.93;;;28.50;94.30;;;;;;5070416;28;20289;-71
2023/09/06 11:42:14;;;;;;;4.07;3.73;;;28.50;92.70;;;;;;5066588;28;20458;-71
2023/09/06 11:44:55;;;;;;;4.70;3.30;;;28.50;93.00;;;;;;5055738;28;20420;-71
2023/09/06 11:47:24;;;;;;;3.90;3.60;;;28.50;93.50;;;;;;5060063;28;20450;-71
2023/09/06 11:49:50;;;;;;;5.70;3.93;;;28.50;94.60;;;;;;5051788;28;20427;-71
2023/09/06 11:52:19;;;;;;;4.50;3.60;;;28.50;92.20;;;;;;5077961;28;20411;-71
2023/09/06 11:54:52;;;;;;;4.20;3.50;;;28.60;93.90;;;;;;5081337;28;20169;-71
2023/09/06 11:57:27;;;;;;;4.77;3.47;;;28.60;93.70;;;;;;5061744;28;20420;-72
2023/09/06 11:59:57;;;;;;;3.70;3.40;;;28.70;93.40;;;;;;5072588;28;20958;-71
2023/09/06 12:02:30;;;;;;;3.70;3.00;;;28.80;90.80;;;;;;5067425;28;20538;-71
2023/09/06 12:05:03;;;;;;;3.93;3.53;;;28.80;91.40;;;;;;5049370;28;20436;-71
2023/09/06 12:07:30;;;;;;;4.13;3.70;;;28.90;92.10;;;;;;5048193;28;20417;-71
2023/09/06 12:10:02;;;;;;;3.50;3.20;;;28.90;91.50;;;;;;5054134;28;20435;-71
2023/09/06 12:12:34;;;;;;;4.20;3.27;;;28.90;90.10;;;;;;5048448;28;20494;-71
2023/09/06 12:15:00;;;;;;;4.23;3.80;;;28.90;90.40;;;;;;5048847;28;20432;-71
2023/09/06 12:17:26;;;;;;;3.90;3.47;;;28.90;90.50;;;;;;5047479;28;20416;-71
2023/09/06 12:20:01;;;;;;;3.97;3.47;;;28.80;90.60;;;;;;5047788;28;20210;-71
2023/09/06 12:22:27;;;;;;;3.87;3.50;;;28.90;89.10;;;;;;5047775;28;20698;-71
2023/09/06 12:24:55;;;;;;;4.73;3.10;;;28.90;91.40;;;;;;5051885;28;20419;-71
2023/09/06 12:27:22;;;;;;;3.30;3.00;;;28.90;89.70;;;;;;5068309;28;20243;-71
2023/09/06 12:29:47;;;;;;;4.17;3.87;;;28.90;91.20;;;;;;5065579;28;20840;-71
2023/09/06 12:32:13;;;;;;;3.90;3.50;;;28.90;92.60;;;;;;5068850;28;20431;-71
2023/09/06 12:34:39;;;;;;;3.60;3.30;;;29.00;92.00;;;;;;5053513;28;20236;-71
2023/09/06 12:37:04;;;;;;;4.40;3.90;;;29.10;89.40;;;;;;5048296;28;20190;-71
2023/09/06 12:39:30;;;;;;;3.83;3.43;;;29.10;91.20;;;;;;5048781;28;20205;-71
2023/09/06 12:41:56;;;;;;;4.03;3.47;;;29.10;90.60;;;;;;5048625;28;20312;-71
2023/09/06 12:44:22;;;;;;;3.60;3.30;;;29.10;88.40;;;;;;5048909;28;20192;-71
2023/09/06 12:46:47;;;;;;;5.97;3.60;;;29.00;89.00;;;;;;5047973;28;20168;-71
2023/09/06 12:49:13;;;;;;;3.53;3.23;;;29.00;88.30;;;;;;5048729;28;20682;-71
2023/09/06 12:51:39;;;;;;;4.37;3.90;;;29.00;87.80;;;;;;5048883;28;20186;-71